sensor_id;sensor_type;location;lat;lon;timestamp;P1;durP1;ratioP1;P2;durP2;ratioP2
2756;SDS011;1386;50.862;6.494;2024-02-16T12:13:17;4.13;;;3.70;;
2756;SDS011;1386;50.862;6.494;2024-02-16T12:15:53;8.70;;;4.20;;
2756;SDS011;1386;50.862;6.494;2024-02-16T12:18:24;6.60;;;4.23;;
2756;SDS011;1386;50.862;6.494;2024-02-16T12:20:59;6.63;;;4.27;;
2756;SDS011;1386;50.862;6.494;2024-02-16T12:23:26;7.53;;;4.40;;
2756;SDS011;1386;50.862;6.494;2024-02-16T12:25:56;5.20;;;4.17;;
2756;SDS011;1386;50.862;6.494;2024-02-16T12:28:30;6.13;;;4.20;;
2756;SDS011;1386;50.862;6.494;2024-02-16T12:30:58;10.73;;;4.77;;
2756;SDS011;1386;50.862;6.494;2024-02-16T12:33:25;13.03;;;4.40;;
2756;SDS011;1386;50.862;6.494;2024-02-16T12:35:52;7.00;;;5.00;;
2756;SDS011;1386;50.862;6.494;2024-02-16T12:38:20;6.83;;;4.70;;
2756;SDS011;1386;50.862;6.494;2024-02-16T12:40:47;6.33;;;4.93;;
2756;SDS011;1386;50.862;6.494;2024-02-16T12:43:13;7.73;;;5.20;;
2756;SDS011;1386;50.862;6.494;2024-02-16T12:45:42;8.60;;;4.40;;
2756;SDS011;1386;50.862;6.494;2024-02-16T12:48:09;5.83;;;4.43;;
2756;SDS011;1386;50.862;6.494;2024-02-16T12:50:38;9.07;;;4.33;;
2756;SDS011;1386;50.862;6.494;2024-02-16T12:53:06;4.13;;;3.73;;
2756;SDS011;1386;50.862;6.494;2024-02-16T12:55:33;7.33;;;4.93;;
2756;SDS011;1386;50.862;6.494;2024-02-16T12:58:01;5.87;;;4.43;;
2756;SDS011;1386;50.862;6.494;2024-02-16T13:00:28;4.57;;;4.17;;
2756;SDS011;1386;50.862;6.494;2024-02-16T13:02:56;8.27;;;4.90;;
2756;SDS011;1386;50.862;6.494;2024-02-16T13:05:23;6.33;;;4.43;;
2756;SDS011;1386;50.862;6.494;2024-02-16T13:07:50;5.30;;;4.33;;
2756;SDS011;1386;50.862;6.494;2024-02-16T13:10:16;5.23;;;4.33;;
2756;SDS011;1386;50.862;6.494;2024-02-16T13:12:44;6.33;;;4.40;;
2756;SDS011;1386;50.862;6.494;2024-02-16T13:15:11;4.73;;;4.00;;
2756;SDS011;1386;50.862;6.494;2024-02-16T13:17:38;6.30;;;4.30;;
2756;SDS011;1386;50.862;6.494;2024-02-16T13:20:07;6.20;;;5.37;;
2756;SDS011;1386;50.862;6.494;2024-02-16T13:22:37;5.63;;;4.37;;
2756;SDS011;1386;50.862;6.494;2024-02-16T13:25:10;7.80;;;4.63;;
2756;SDS011;1386;50.862;6.494;2024-02-16T13:27:37;6.53;;;4.80;;
2756;SDS011;1386;50.862;6.494;2024-02-16T13:30:05;7.50;;;5.40;;
2756;SDS011;1386;50.862;6.494;2024-02-16T13:32:32;6.67;;;4.93;;
2756;SDS011;1386;50.862;6.494;2024-02-16T13:35:01;6.70;;;5.00;;
2756;SDS011;1386;50.862;6.494;2024-02-16T13:37:40;6.50;;;5.20;;
2756;SDS011;1386;50.862;6.494;2024-02-16T13:40:08;5.87;;;4.73;;
2756;SDS011;1386;50.862;6.494;2024-02-16T13:42:35;6.03;;;5.27;;
2756;SDS011;1386;50.862;6.494;2024-02-16T13:45:11;7.53;;;5.20;;
2756;SDS011;1386;50.862;6.494;2024-02-16T13:47:45;7.23;;;4.80;;
2756;SDS011;1386;50.862;6.494;2024-02-16T13:50:12;7.80;;;5.00;;
2756;SDS011;1386;50.862;6.494;2024-02-16T13:52:40;5.67;;;4.80;;
2756;SDS011;1386;50.862;6.494;2024-02-16T13:55:07;7.90;;;4.87;;
2756;SDS011;1386;50.862;6.494;2024-02-16T13:57:34;4.80;;;4.27;;
2756;SDS011;1386;50.862;6.494;2024-02-16T14:00:04;9.50;;;5.10;;
2756;SDS011;1386;50.862;6.494;2024-02-16T14:02:32;5.93;;;4.67;;
2756;SDS011;1386;50.862;6.494;2024-02-16T14:04:58;6.27;;;4.83;;
2756;SDS011;1386;50.862;6.494;2024-02-16T14:07:25;7.13;;;5.07;;
2756;SDS011;1386;50.862;6.494;2024-02-16T14:09:55;6.90;;;5.43;;
2756;SDS011;1386;50.862;6.494;2024-02-16T14:12:25;7.13;;;5.10;;
2756;SDS011;1386;50.862;6.494;2024-02-16T14:14:59;6.90;;;5.70;;
2756;SDS011;1386;50.862;6.494;2024-02-16T14:17:26;8.73;;;6.13;;
2756;SDS011;1386;50.862;6.494;2024-02-16T14:20:00;6.80;;;5.20;;
2756;SDS011;1386;50.862;6.494;2024-02-16T14:25:33;6.20;;;5.60;;
2756;SDS011;1386;50.862;6.494;2024-02-16T14:28:12;8.60;;;5.73;;
2756;SDS011;1386;50.862;6.494;2024-02-16T14:30:39;7.23;;;6.13;;
2756;SDS011;1386;50.862;6.494;2024-02-16T14:33:07;11.57;;;5.83;;
2756;SDS011;1386;50.862;6.494;2024-02-16T14:35:34;7.90;;;5.73;;
2756;SDS011;1386;50.862;6.494;2024-02-16T14:38:03;8.20;;;6.00;;
2756;SDS011;1386;50.862;6.494;2024-02-16T14:40:36;9.40;;;6.27;;
2756;SDS011;1386;50.862;6.494;2024-02-16T14:43:03;8.97;;;6.50;;
2756;SDS011;1386;50.862;6.494;2024-02-16T14:45:32;8.80;;;5.70;;
2756;SDS011;1386;50.862;6.494;2024-02-16T14:47:59;7.17;;;5.50;;
2756;SDS011;1386;50.862;6.494;2024-02-16T14:50:29;6.50;;;5.90;;
2756;SDS011;1386;50.862;6.494;2024-02-16T14:55:43;8.13;;;7.20;;
2756;SDS011;1386;50.862;6.494;2024-02-16T14:58:11;9.10;;;7.90;;
2756;SDS011;1386;50.862;6.494;2024-02-16T15:00:38;9.60;;;7.80;;
2756;SDS011;1386;50.862;6.494;2024-02-16T15:03:09;11.20;;;8.20;;
2756;SDS011;1386;50.862;6.494;2024-02-16T15:05:36;7.90;;;7.10;;
2756;SDS011;1386;50.862;6.494;2024-02-16T15:08:03;9.17;;;8.10;;
2756;SDS011;1386;50.862;6.494;2024-02-16T15:10:30;8.53;;;7.50;;
2756;SDS011;1386;50.862;6.494;2024-02-16T15:12:59;8.70;;;7.47;;
2756;SDS011;1386;50.862;6.494;2024-02-16T15:15:26;6.60;;;5.63;;
2756;SDS011;1386;50.862;6.494;2024-02-16T15:17:53;6.57;;;5.70;;
2756;SDS011;1386;50.862;6.494;2024-02-16T15:20:20;6.10;;;5.60;;
2756;SDS011;1386;50.862;6.494;2024-02-16T15:22:48;5.00;;;4.60;;
2756;SDS011;1386;50.862;6.494;2024-02-16T15:25:15;4.43;;;4.03;;
2756;SDS011;1386;50.862;6.494;2024-02-16T15:27:45;3.37;;;3.07;;
2756;SDS011;1386;50.862;6.494;2024-02-16T15:30:14;4.10;;;3.40;;
2756;SDS011;1386;50.862;6.494;2024-02-16T15:32:41;3.30;;;3.00;;
2756;SDS011;1386;50.862;6.494;2024-02-16T15:35:08;3.00;;;2.80;;
2756;SDS011;1386;50.862;6.494;2024-02-16T15:37:36;4.47;;;3.70;;
2756;SDS011;1386;50.862;6.494;2024-02-16T15:40:03;3.80;;;3.10;;
2756;SDS011;1386;50.862;6.494;2024-02-16T15:42:30;4.70;;;3.70;;
2756;SDS011;1386;50.862;6.494;2024-02-16T15:45:01;4.97;;;3.60;;
2756;SDS011;1386;50.862;6.494;2024-02-16T15:47:34;4.17;;;3.43;;
2756;SDS011;1386;50.862;6.494;2024-02-16T15:50:25;3.77;;;3.10;;
2756;SDS011;1386;50.862;6.494;2024-02-16T15:56:01;5.37;;;3.60;;
2756;SDS011;1386;50.862;6.494;2024-02-16T15:58:36;11.60;;;7.27;;
2756;SDS011;1386;50.862;6.494;2024-02-16T16:01:06;9.10;;;5.50;;
2756;SDS011;1386;50.862;6.494;2024-02-16T16:03:35;4.00;;;3.60;;
2756;SDS011;1386;50.862;6.494;2024-02-16T16:06:03;4.63;;;3.90;;
2756;SDS011;1386;50.862;6.494;2024-02-16T16:08:30;3.30;;;2.97;;
2756;SDS011;1386;50.862;6.494;2024-02-16T16:10:57;3.33;;;3.03;;
2756;SDS011;1386;50.862;6.494;2024-02-16T16:13:27;3.80;;;3.17;;
2756;SDS011;1386;50.862;6.494;2024-02-16T16:15:55;3.63;;;3.33;;
2756;SDS011;1386;50.862;6.494;2024-02-16T16:18:24;3.97;;;3.53;;
2756;SDS011;1386;50.862;6.494;2024-02-16T16:20:52;4.23;;;3.83;;
2756;SDS011;1386;50.862;6.494;2024-02-16T16:23:19;4.67;;;3.70;;
2756;SDS011;1386;50.862;6.494;2024-02-16T16:25:47;4.97;;;4.47;;
2756;SDS011;1386;50.862;6.494;2024-02-16T16:28:14;4.80;;;3.87;;
2756;SDS011;1386;50.862;6.494;2024-02-16T16:30:41;4.30;;;3.57;;
2756;SDS011;1386;50.862;6.494;2024-02-16T16:33:08;4.87;;;4.37;;
2756;SDS011;1386;50.862;6.494;2024-02-16T16:35:37;5.53;;;4.43;;
2756;SDS011;1386;50.862;6.494;2024-02-16T16:38:06;4.23;;;3.93;;
2756;SDS011;1386;50.862;6.494;2024-02-16T16:40:34;4.90;;;4.40;;
2756;SDS011;1386;50.862;6.494;2024-02-16T16:43:02;5.17;;;4.67;;
2756;SDS011;1386;50.862;6.494;2024-02-16T16:45:29;4.90;;;4.50;;
2756;SDS011;1386;50.862;6.494;2024-02-16T16:47:57;6.77;;;4.20;;
2756;SDS011;1386;50.862;6.494;2024-02-16T16:50:26;5.80;;;4.07;;
2756;SDS011;1386;50.862;6.494;2024-02-16T16:52:53;4.53;;;4.13;;
2756;SDS011;1386;50.862;6.494;2024-02-16T16:55:22;4.20;;;3.80;;
2756;SDS011;1386;50.862;6.494;2024-02-16T16:57:49;4.20;;;3.80;;
2756;SDS011;1386;50.862;6.494;2024-02-16T17:00:16;4.80;;;4.20;;
2756;SDS011;1386;50.862;6.494;2024-02-16T17:02:44;4.23;;;3.80;;
2756;SDS011;1386;50.862;6.494;2024-02-16T17:05:11;4.40;;;4.00;;
2756;SDS011;1386;50.862;6.494;2024-02-16T17:07:38;4.23;;;3.70;;
2756;SDS011;1386;50.862;6.494;2024-02-16T17:10:06;5.07;;;4.60;;
2756;SDS011;1386;50.862;6.494;2024-02-16T17:12:42;4.13;;;3.70;;
